createdAt,value
2022-08-28T00:01:35.180Z,49.10
2022-08-28T00:04:01.893Z,49.65
2022-08-28T00:06:28.616Z,49.43
2022-08-28T00:08:55.512Z,49.23
2022-08-28T00:11:23.199Z,49.33
2022-08-28T00:13:49.882Z,48.87
2022-08-28T00:16:18.728Z,48.58
2022-08-28T00:18:45.559Z,48.82
2022-08-28T00:21:14.524Z,48.59
2022-08-28T00:23:43.337Z,49.04
2022-08-28T00:26:10.859Z,49.00
2022-08-28T00:28:37.376Z,48.49
2022-08-28T00:31:05.160Z,48.94
2022-08-28T00:33:33.747Z,48.59
2022-08-28T00:36:01.202Z,48.58
2022-08-28T00:38:28.655Z,49.26
2022-08-28T00:40:58.307Z,48.85
2022-08-28T00:43:46.038Z,49.13
2022-08-28T00:46:16.054Z,48.88
2022-08-28T00:48:42.773Z,49.08
2022-08-28T00:51:28.464Z,48.79
2022-08-28T00:53:58.611Z,49.23
2022-08-28T00:56:25.883Z,48.92
2022-08-28T00:58:53.295Z,49.08
2022-08-28T01:01:20.009Z,48.97
2022-08-28T01:03:46.751Z,49.02
2022-08-28T01:06:14.825Z,48.85
2022-08-28T01:08:43.060Z,49.50
2022-08-28T01:11:10.945Z,48.95
2022-08-28T01:13:39.639Z,49.10
2022-08-28T01:16:07.481Z,49.22
2022-08-28T01:18:34.874Z,49.14
2022-08-28T01:21:11.729Z,49.33
2022-08-28T01:24:09.094Z,48.89
2022-08-28T01:26:37.916Z,49.00
2022-08-28T01:29:04.907Z,48.78
2022-08-28T01:31:31.747Z,49.07
2022-08-28T01:34:01.319Z,48.70
2022-08-28T01:36:29.193Z,49.33
2022-08-28T01:39:08.028Z,49.74
2022-08-28T01:41:35.464Z,49.47
2022-08-28T01:44:02.095Z,49.96
2022-08-28T01:46:30.332Z,49.34
2022-08-28T01:48:57.020Z,49.56
2022-08-28T01:51:24.723Z,49.22
2022-08-28T01:53:52.039Z,49.48
2022-08-28T01:56:19.091Z,49.77
2022-08-28T01:58:48.101Z,49.87
2022-08-28T02:01:16.599Z,49.75
2022-08-28T02:03:43.340Z,49.63
2022-08-28T02:06:10.812Z,50.01
2022-08-28T02:08:37.360Z,49.68
2022-08-28T02:11:06.338Z,50.39
2022-08-28T02:13:33.873Z,50.37
2022-08-28T02:16:00.831Z,50.25
2022-08-28T02:18:27.712Z,50.47
2022-08-28T02:20:54.199Z,50.31
2022-08-28T02:23:20.703Z,50.35
2022-08-28T02:25:47.240Z,50.09
2022-08-28T02:28:16.304Z,50.25
2022-08-28T02:30:43.581Z,50.14
2022-08-28T02:33:10.086Z,50.44
2022-08-28T02:35:36.620Z,50.74
2022-08-28T02:38:03.807Z,50.64
2022-08-28T02:40:30.399Z,51.50
2022-08-28T02:42:57.364Z,50.95
2022-08-28T02:45:23.891Z,51.17
2022-08-28T02:47:52.049Z,51.22
2022-08-28T02:50:19.671Z,50.92
2022-08-28T02:52:46.514Z,51.05
2022-08-28T02:55:14.103Z,51.38
2022-08-28T02:57:41.334Z,51.32
2022-08-28T03:00:10.412Z,51.55
2022-08-28T03:02:36.926Z,51.51
2022-08-28T03:05:03.737Z,51.37
2022-08-28T03:07:30.339Z,51.46
2022-08-28T03:09:56.999Z,51.32
2022-08-28T03:12:26.376Z,51.31
2022-08-28T03:14:54.078Z,51.70
2022-08-28T03:17:21.544Z,51.78
2022-08-28T03:19:49.994Z,51.95
2022-08-28T03:22:17.316Z,51.81
2022-08-28T03:24:44.899Z,51.89
2022-08-28T03:27:13.198Z,52.16
2022-08-28T03:29:39.777Z,51.96
2022-08-28T03:32:06.420Z,51.54
2022-08-28T03:34:33.685Z,51.75
2022-08-28T03:37:01.231Z,51.28
2022-08-28T03:39:27.861Z,51.33
2022-08-28T03:41:54.465Z,51.42
2022-08-28T03:44:21.388Z,51.33
2022-08-28T03:46:47.851Z,51.64
2022-08-28T03:49:14.322Z,51.46
2022-08-28T03:51:41.194Z,51.95
2022-08-28T03:54:07.660Z,51.87
2022-08-28T03:56:34.147Z,52.30
2022-08-28T03:59:01.461Z,52.31
2022-08-28T04:01:28.152Z,52.07
2022-08-28T04:03:55.943Z,52.34
2022-08-28T04:06:22.992Z,52.41
2022-08-28T04:08:50.908Z,52.36
2022-08-28T04:11:18.257Z,52.36
2022-08-28T04:13:45.015Z,52.38
2022-08-28T04:16:12.902Z,52.06
2022-08-28T04:18:40.734Z,52.33
2022-08-28T04:21:11.768Z,52.79
2022-08-28T04:23:39.173Z,52.89
2022-08-28T04:26:06.692Z,52.95
2022-08-28T04:28:33.413Z,52.94
2022-08-28T04:30:59.951Z,52.80
2022-08-28T04:33:28.283Z,52.64
2022-08-28T04:35:55.340Z,53.24
2022-08-28T04:38:22.239Z,53.09
2022-08-28T04:40:48.744Z,52.72
2022-08-28T04:43:15.308Z,52.81
2022-08-28T04:45:43.360Z,52.83
2022-08-28T04:48:13.167Z,52.63
2022-08-28T04:50:43.607Z,52.75
2022-08-28T04:53:10.411Z,52.39
2022-08-28T04:55:45.100Z,52.45
2022-08-28T04:58:23.835Z,52.46
2022-08-28T05:00:51.747Z,51.98
2022-08-28T05:03:18.356Z,52.47
2022-08-28T05:05:46.339Z,52.35
2022-08-28T05:08:13.997Z,52.71
2022-08-28T05:10:41.614Z,52.64
2022-08-28T05:13:09.004Z,52.20
2022-08-28T05:15:40.143Z,52.52
2022-08-28T05:18:06.656Z,52.32
2022-08-28T05:20:37.145Z,52.41
2022-08-28T05:23:04.539Z,52.50
2022-08-28T05:25:34.164Z,52.53
2022-08-28T05:28:00.593Z,52.31
2022-08-28T05:30:27.181Z,52.02
2022-08-28T05:32:53.968Z,52.04
2022-08-28T05:35:20.488Z,51.70
2022-08-28T05:37:46.999Z,51.63
2022-08-28T05:40:13.764Z,51.62
2022-08-28T05:42:40.328Z,51.72
2022-08-28T05:45:07.160Z,50.94
2022-08-28T05:47:33.713Z,51.90
2022-08-28T05:50:00.195Z,51.10
2022-08-28T05:52:28.686Z,51.47
2022-08-28T05:54:55.751Z,51.06
2022-08-28T05:57:22.205Z,51.01
2022-08-28T05:59:49.690Z,50.66
2022-08-28T06:02:16.538Z,50.74
2022-08-28T06:04:43.022Z,50.64
2022-08-28T06:07:12.079Z,50.39
2022-08-28T06:09:38.599Z,50.42
2022-08-28T06:12:05.486Z,50.11
2022-08-28T06:14:33.083Z,49.68
2022-08-28T06:17:01.364Z,48.95
2022-08-28T06:19:29.012Z,48.79
2022-08-28T06:21:57.153Z,49.21
2022-08-28T06:24:24.214Z,49.47
2022-08-28T06:26:52.003Z,49.26
2022-08-28T06:29:21.142Z,49.44
2022-08-28T06:31:53.085Z,48.85
2022-08-28T06:34:19.807Z,48.10
2022-08-28T06:36:48.582Z,47.53
2022-08-28T06:39:18.347Z,47.71
2022-08-28T06:41:44.858Z,47.24
2022-08-28T06:44:13.400Z,47.37
2022-08-28T06:46:40.462Z,47.22
2022-08-28T06:49:08.355Z,47.06
2022-08-28T06:51:35.571Z,47.31
2022-08-28T06:54:02.554Z,47.48
2022-08-28T06:56:29.768Z,47.19
2022-08-28T06:58:57.547Z,47.17
2022-08-28T07:01:25.665Z,47.56
2022-08-28T07:03:53.928Z,47.10
2022-08-28T07:06:21.725Z,47.26
2022-08-28T07:08:48.884Z,46.55
2022-08-28T07:11:19.051Z,46.71
2022-08-28T07:13:45.998Z,45.74
2022-08-28T07:16:13.530Z,45.98
2022-08-28T07:18:40.181Z,45.79
2022-08-28T07:21:11.632Z,46.28
2022-08-28T07:23:39.173Z,45.28
2022-08-28T07:26:07.245Z,44.38
2022-08-28T07:28:34.303Z,44.79
2022-08-28T07:31:02.733Z,44.33
2022-08-28T07:33:29.512Z,45.12
2022-08-28T07:35:56.915Z,44.67
2022-08-28T07:38:25.298Z,43.79
2022-08-28T07:40:52.022Z,43.70
2022-08-28T07:43:37.259Z,43.98
2022-08-28T07:46:07.077Z,43.55
2022-08-28T07:48:35.351Z,42.43
2022-08-28T07:51:05.692Z,41.82
2022-08-28T07:53:36.368Z,41.39
2022-08-28T07:56:03.640Z,41.15
2022-08-28T07:58:30.116Z,41.17
2022-08-28T08:00:57.716Z,40.78
2022-08-28T08:03:25.625Z,40.94
2022-08-28T08:05:53.674Z,40.29
2022-08-28T08:08:20.215Z,39.69
2022-08-28T08:10:56.034Z,38.80
2022-08-28T08:13:22.903Z,38.25
2022-08-28T08:15:49.439Z,38.48
2022-08-28T08:18:17.240Z,37.45
2022-08-28T08:20:47.735Z,37.99
2022-08-28T08:23:15.438Z,37.81
2022-08-28T08:25:41.902Z,37.80
2022-08-28T08:28:08.663Z,37.32
2022-08-28T08:30:36.361Z,38.18
2022-08-28T08:33:03.005Z,38.68
2022-08-28T08:35:29.569Z,39.02
2022-08-28T08:37:58.689Z,39.88
2022-08-28T08:40:27.268Z,39.46
2022-08-28T08:42:57.017Z,38.43
2022-08-28T08:45:26.612Z,36.35
2022-08-28T08:47:55.817Z,29.38
2022-08-28T08:50:27.060Z,24.88
2022-08-28T08:52:59.702Z,22.08
2022-08-28T08:55:28.762Z,20.38
2022-08-28T08:58:11.322Z,19.88
2022-08-28T09:00:53.652Z,19.38
2022-08-28T09:03:25.778Z,17.11
2022-08-28T09:05:58.141Z,17.54
2022-08-28T09:08:31.115Z,18.46
2022-08-28T09:11:02.995Z,18.81
2022-08-28T09:13:38.500Z,20.13
2022-08-28T09:16:10.985Z,20.96
2022-08-28T09:18:38.363Z,21.11
2022-08-28T09:21:05.580Z,21.52
2022-08-28T09:23:32.190Z,22.71
2022-08-28T09:26:02.381Z,24.77
2022-08-28T09:28:32.039Z,26.71
2022-08-28T09:30:58.720Z,28.28
2022-08-28T09:33:34.612Z,29.44
2022-08-28T09:36:20.265Z,30.19
2022-08-28T09:38:46.887Z,29.94
2022-08-28T09:41:32.139Z,24.46
2022-08-28T09:43:58.770Z,20.77
2022-08-28T09:46:29.523Z,18.94
2022-08-28T09:49:10.213Z,17.42
2022-08-28T09:51:38.762Z,15.00
2022-08-28T09:54:08.970Z,13.64
2022-08-28T09:56:36.373Z,12.87
2022-08-28T09:59:06.798Z,11.67
2022-08-28T10:01:46.642Z,12.15
2022-08-28T10:04:19.537Z,12.02
2022-08-28T10:06:54.918Z,13.03
2022-08-28T10:09:40.168Z,13.44
2022-08-28T10:12:14.121Z,12.54
2022-08-28T10:14:52.939Z,12.42
2022-08-28T10:17:25.559Z,11.83
2022-08-28T10:19:57.691Z,12.54
2022-08-28T10:22:24.168Z,12.10
2022-08-28T10:24:53.700Z,11.66
2022-08-28T10:27:22.944Z,10.97
2022-08-28T10:29:49.862Z,10.75
2022-08-28T10:32:35.286Z,11.69
2022-08-28T10:35:11.933Z,10.89
2022-08-28T10:37:45.506Z,10.66
2022-08-28T10:40:24.382Z,11.55
2022-08-28T10:42:55.874Z,12.34
2022-08-28T10:45:23.833Z,10.67
2022-08-28T10:47:59.636Z,10.63
2022-08-28T10:50:28.778Z,9.01
2022-08-28T10:53:02.729Z,8.45
2022-08-28T10:55:48.021Z,9.51
2022-08-28T10:58:24.478Z,9.05
2022-08-28T11:00:56.624Z,8.79
2022-08-28T11:03:34.294Z,8.40
2022-08-28T11:06:08.327Z,8.57
2022-08-28T11:08:36.942Z,10.40
2022-08-28T11:11:05.407Z,12.93
2022-08-28T11:13:51.164Z,14.86
2022-08-28T11:16:20.649Z,15.99
2022-08-28T11:18:59.644Z,13.46
2022-08-28T11:21:26.383Z,10.91
2022-08-28T11:24:24.100Z,10.00
2022-08-28T11:26:58.207Z,10.85
2022-08-28T11:29:43.407Z,10.92
2022-08-28T11:32:28.834Z,9.04
2022-08-28T11:34:55.761Z,8.32
2022-08-28T11:37:42.087Z,8.15
2022-08-28T11:40:19.429Z,8.19
2022-08-28T11:42:48.821Z,7.89
2022-08-28T11:45:19.959Z,7.60
2022-08-28T11:47:52.892Z,7.37
2022-08-28T11:50:27.999Z,7.51
2022-08-28T11:53:10.027Z,7.36
2022-08-28T11:55:49.130Z,7.66
2022-08-28T11:58:19.212Z,7.71
2022-08-28T12:00:51.802Z,7.49
2022-08-28T12:03:28.612Z,7.64
2022-08-28T12:05:56.856Z,9.30
2022-08-28T12:08:42.279Z,9.57
2022-08-28T12:11:08.956Z,9.76
2022-08-28T12:13:44.999Z,10.10
2022-08-28T12:16:12.249Z,9.58
2022-08-28T12:18:43.032Z,8.56
2022-08-28T12:21:22.973Z,8.27
2022-08-28T12:24:04.121Z,9.75
2022-08-28T12:26:37.250Z,12.26
2022-08-28T12:29:16.409Z,13.89
2022-08-28T12:32:11.409Z,15.07
2022-08-28T12:34:46.287Z,15.41
2022-08-28T12:37:25.041Z,16.19
2022-08-28T12:39:52.139Z,17.60
2022-08-28T12:42:20.184Z,17.74
2022-08-28T12:44:47.270Z,17.70
2022-08-28T12:47:15.440Z,18.05
2022-08-28T12:49:42.128Z,18.78
2022-08-28T12:52:22.372Z,18.86
2022-08-28T12:54:49.895Z,19.82
2022-08-28T12:57:18.247Z,20.42
2022-08-28T12:59:46.386Z,21.19
2022-08-28T13:02:20.723Z,21.21
2022-08-28T13:05:07.853Z,21.33
2022-08-28T13:07:36.960Z,21.55
2022-08-28T13:10:22.368Z,21.61
2022-08-28T13:13:03.247Z,21.54
2022-08-28T13:15:50.278Z,21.39
2022-08-28T13:18:36.569Z,21.17
2022-08-28T13:21:12.118Z,21.55
2022-08-28T13:23:38.673Z,21.99
2022-08-28T13:26:05.941Z,21.91
2022-08-28T13:28:36.913Z,22.24
2022-08-28T13:31:03.689Z,22.74
2022-08-28T13:33:30.591Z,23.13
2022-08-28T13:35:57.499Z,22.89
2022-08-28T13:38:25.038Z,23.03
2022-08-28T13:40:57.998Z,22.96
2022-08-28T13:43:26.517Z,23.35
2022-08-28T13:45:53.521Z,22.63
2022-08-28T13:48:21.602Z,22.63
2022-08-28T13:50:50.203Z,22.49
2022-08-28T13:53:18.573Z,22.06
2022-08-28T13:55:46.231Z,22.02
2022-08-28T13:58:13.957Z,22.05
2022-08-28T14:00:42.409Z,22.14
2022-08-28T14:03:27.614Z,22.43
2022-08-28T14:05:54.579Z,23.03
2022-08-28T14:08:21.683Z,23.23
2022-08-28T14:10:48.365Z,23.52
2022-08-28T14:13:15.068Z,23.32
2022-08-28T14:15:41.780Z,23.83
2022-08-28T14:18:08.297Z,23.89
2022-08-28T14:20:34.804Z,24.14
2022-08-28T14:23:01.327Z,24.25
2022-08-28T14:25:27.883Z,23.99
2022-08-28T14:27:55.852Z,24.30
2022-08-28T14:30:22.993Z,24.16
2022-08-28T14:32:49.535Z,24.17
2022-08-28T14:35:16.165Z,24.37
2022-08-28T14:37:42.818Z,24.31
2022-08-28T14:40:10.084Z,24.46
2022-08-28T14:42:36.727Z,23.95
2022-08-28T14:45:03.673Z,24.95
2022-08-28T14:47:30.535Z,24.70
2022-08-28T14:49:57.123Z,24.24
2022-08-28T14:52:23.860Z,24.56
2022-08-28T14:54:50.465Z,24.78
2022-08-28T14:57:17.065Z,24.88
2022-08-28T14:59:45.279Z,24.87
2022-08-28T15:02:13.502Z,25.24
2022-08-28T15:04:40.087Z,24.69
2022-08-28T15:07:08.297Z,24.54
2022-08-28T15:09:36.112Z,24.87
2022-08-28T15:12:02.802Z,24.92
2022-08-28T15:14:29.460Z,25.37
2022-08-28T15:16:56.135Z,26.28
2022-08-28T15:19:23.476Z,25.89
2022-08-28T15:21:51.895Z,26.42
2022-08-28T15:24:22.060Z,26.09
2022-08-28T15:26:48.660Z,26.76
2022-08-28T15:29:15.241Z,26.21
2022-08-28T15:31:42.835Z,26.02
2022-08-28T15:34:14.539Z,26.40
2022-08-28T15:36:42.082Z,26.88
2022-08-28T15:39:27.460Z,26.95
2022-08-28T15:41:54.136Z,26.80
2022-08-28T15:44:20.744Z,27.21
2022-08-28T15:46:50.588Z,27.19
2022-08-28T15:49:17.573Z,26.78
2022-08-28T15:51:44.334Z,27.23
2022-08-28T15:54:11.282Z,26.83
2022-08-28T15:56:38.056Z,25.54
2022-08-28T15:59:04.734Z,25.22
2022-08-28T16:01:31.347Z,25.65
2022-08-28T16:03:57.926Z,25.57
2022-08-28T16:06:24.569Z,26.15
2022-08-28T16:08:51.103Z,26.52
2022-08-28T16:11:19.041Z,26.95
2022-08-28T16:13:46.460Z,27.12
2022-08-28T16:16:13.140Z,27.51
2022-08-28T16:18:39.717Z,27.71
2022-08-28T16:21:06.491Z,27.79
2022-08-28T16:23:35.070Z,27.78
2022-08-28T16:26:05.184Z,27.87
2022-08-28T16:28:33.294Z,27.74
2022-08-28T16:31:04.750Z,27.38
2022-08-28T16:33:34.151Z,27.38
2022-08-28T16:36:03.714Z,27.79
2022-08-28T16:38:30.543Z,27.79
2022-08-28T16:40:57.181Z,28.40
2022-08-28T16:43:23.666Z,28.57
2022-08-28T16:45:51.004Z,27.88
2022-08-28T16:48:17.612Z,28.75
2022-08-28T16:50:45.014Z,27.99
2022-08-28T16:53:12.288Z,28.91
2022-08-28T16:55:40.479Z,28.08
2022-08-28T16:58:07.198Z,28.24
2022-08-28T17:00:34.043Z,29.01
2022-08-28T17:03:11.031Z,29.23
2022-08-28T17:05:37.529Z,29.43
2022-08-28T17:08:04.952Z,28.81
2022-08-28T17:10:31.659Z,29.01
2022-08-28T17:12:58.199Z,29.47
2022-08-28T17:15:24.826Z,29.25
2022-08-28T17:17:52.035Z,28.80
2022-08-28T17:20:37.413Z,29.17
2022-08-28T17:23:05.777Z,28.77
2022-08-28T17:25:32.309Z,28.81
2022-08-28T17:27:59.088Z,29.01
2022-08-28T17:30:25.850Z,29.44
2022-08-28T17:32:53.297Z,29.77
2022-08-28T17:35:20.339Z,29.91
2022-08-28T17:37:47.046Z,30.16
2022-08-28T17:40:15.608Z,30.00
2022-08-28T17:42:42.514Z,29.71
2022-08-28T17:45:10.129Z,29.79
2022-08-28T17:47:36.727Z,29.98
2022-08-28T17:50:04.906Z,30.39
2022-08-28T17:52:32.079Z,30.71
2022-08-28T17:54:58.679Z,30.80
2022-08-28T17:57:25.310Z,30.82
2022-08-28T17:59:51.984Z,30.90
2022-08-28T18:02:19.205Z,30.53
2022-08-28T18:04:45.838Z,30.48
2022-08-28T18:07:12.867Z,30.85
2022-08-28T18:09:39.544Z,31.38
2022-08-28T18:12:06.821Z,30.99
2022-08-28T18:14:39.723Z,30.95
2022-08-28T18:17:06.626Z,31.16
2022-08-28T18:19:36.812Z,31.33
2022-08-28T18:22:03.373Z,31.50
2022-08-28T18:24:31.921Z,31.19
2022-08-28T18:26:58.723Z,31.45
2022-08-28T18:29:25.469Z,30.99
2022-08-28T18:31:52.168Z,31.65
2022-08-28T18:34:18.784Z,31.15
2022-08-28T18:36:45.313Z,31.54
2022-08-28T18:39:12.053Z,31.35
2022-08-28T18:41:43.754Z,31.56
2022-08-28T18:44:11.797Z,31.67
2022-08-28T18:46:38.549Z,31.72
2022-08-28T18:49:05.339Z,31.76
2022-08-28T18:51:32.610Z,31.78
2022-08-28T18:54:01.010Z,31.48
2022-08-28T18:56:30.350Z,30.80
2022-08-28T18:58:59.340Z,31.42
2022-08-28T19:01:26.058Z,31.69
2022-08-28T19:03:53.498Z,31.24
2022-08-28T19:06:20.064Z,31.70
2022-08-28T19:08:46.671Z,31.14
2022-08-28T19:11:14.257Z,31.51
2022-08-28T19:13:41.705Z,31.15
2022-08-28T19:16:08.717Z,31.17
2022-08-28T19:18:35.296Z,30.94
2022-08-28T19:21:09.739Z,31.57
2022-08-28T19:23:41.739Z,31.41
2022-08-28T19:26:18.391Z,31.08
2022-08-28T19:28:45.434Z,31.49
2022-08-28T19:31:12.081Z,31.26
2022-08-28T19:33:39.505Z,31.54
2022-08-28T19:36:06.099Z,31.53
2022-08-28T19:38:33.386Z,31.92
2022-08-28T19:41:00.004Z,31.06
2022-08-28T19:43:31.191Z,31.41
2022-08-28T19:46:18.428Z,31.46
2022-08-28T19:48:48.291Z,31.46
2022-08-28T19:51:22.288Z,31.19
2022-08-28T19:53:57.921Z,31.67
2022-08-28T19:56:29.269Z,31.63
2022-08-28T19:58:58.295Z,32.13
2022-08-28T20:01:25.878Z,31.38
2022-08-28T20:03:52.539Z,31.65
2022-08-28T20:06:19.220Z,31.76
2022-08-28T20:08:45.793Z,31.66
2022-08-28T20:11:16.399Z,32.51
2022-08-28T20:13:43.034Z,31.56
2022-08-28T20:16:10.625Z,31.92
2022-08-28T20:18:37.282Z,31.29
2022-08-28T20:21:04.453Z,31.97
2022-08-28T20:23:31.110Z,31.73
2022-08-28T20:25:57.687Z,32.06
2022-08-28T20:28:24.334Z,32.28
2022-08-28T20:30:51.037Z,32.42
2022-08-28T20:33:17.752Z,32.80
2022-08-28T20:35:44.466Z,32.50
2022-08-28T20:38:11.325Z,32.30
2022-08-28T20:40:38.081Z,32.78
2022-08-28T20:43:04.799Z,32.93
2022-08-28T20:45:31.553Z,32.50
2022-08-28T20:47:58.091Z,32.73
2022-08-28T20:50:24.818Z,32.81
2022-08-28T20:52:51.386Z,32.67
2022-08-28T20:55:18.212Z,33.07
2022-08-28T20:57:44.761Z,33.20
2022-08-28T21:00:11.777Z,34.10
2022-08-28T21:02:39.178Z,33.80
2022-08-28T21:05:05.969Z,34.39
2022-08-28T21:07:34.267Z,34.09
2022-08-28T21:10:07.032Z,33.93
2022-08-28T21:12:38.272Z,33.58
2022-08-28T21:15:06.426Z,33.85
2022-08-28T21:17:32.927Z,33.57
2022-08-28T21:20:00.619Z,33.58
2022-08-28T21:22:27.253Z,33.71
2022-08-28T21:24:54.069Z,33.61
2022-08-28T21:27:20.603Z,33.42
2022-08-28T21:29:47.799Z,33.34
2022-08-28T21:32:14.399Z,33.56
2022-08-28T21:34:40.956Z,33.24
2022-08-28T21:37:07.487Z,33.80
2022-08-28T21:39:34.756Z,34.02
2022-08-28T21:42:01.352Z,34.04
2022-08-28T21:44:27.860Z,33.92
2022-08-28T21:46:54.491Z,33.83
2022-08-28T21:49:22.637Z,34.16
2022-08-28T21:51:49.772Z,34.51
2022-08-28T21:54:16.673Z,34.65
2022-08-28T21:56:43.188Z,34.56
2022-08-28T21:59:09.807Z,34.67
2022-08-28T22:01:36.460Z,34.47
2022-08-28T22:04:03.300Z,34.33
2022-08-28T22:06:29.843Z,34.35
2022-08-28T22:08:57.155Z,34.46
2022-08-28T22:11:24.951Z,34.06
2022-08-28T22:13:52.165Z,34.52
2022-08-28T22:16:18.967Z,34.06
2022-08-28T22:18:45.564Z,34.52
2022-08-28T22:21:32.073Z,34.63
2022-08-28T22:23:58.628Z,34.30
2022-08-28T22:26:25.233Z,34.39
2022-08-28T22:28:51.747Z,34.54
2022-08-28T22:31:18.270Z,34.83
2022-08-28T22:33:45.457Z,34.61
2022-08-28T22:36:12.017Z,34.83
2022-08-28T22:38:39.285Z,34.88
2022-08-28T22:41:06.520Z,34.93
2022-08-28T22:43:33.039Z,34.62
2022-08-28T22:45:59.617Z,35.03
2022-08-28T22:48:26.385Z,35.41
2022-08-28T22:51:00.203Z,35.02
2022-08-28T22:53:26.709Z,35.39
2022-08-28T22:55:53.160Z,34.97
2022-08-28T22:58:19.702Z,35.08
2022-08-28T23:00:46.192Z,35.33
2022-08-28T23:03:12.877Z,35.47
2022-08-28T23:05:39.413Z,35.21
2022-08-28T23:08:05.960Z,35.61
2022-08-28T23:10:57.501Z,35.45
2022-08-28T23:13:20.222Z,35.66
2022-08-28T23:15:47.968Z,35.68
2022-08-28T23:18:15.742Z,35.83
2022-08-28T23:20:42.648Z,35.62
2022-08-28T23:23:09.600Z,36.20
2022-08-28T23:25:36.147Z,35.88
2022-08-28T23:28:06.383Z,36.33
2022-08-28T23:30:33.552Z,35.89
2022-08-28T23:33:00.038Z,36.07
2022-08-28T23:35:26.539Z,36.44
2022-08-28T23:37:53.296Z,36.23
2022-08-28T23:40:21.247Z,35.92
2022-08-28T23:42:48.968Z,36.05
2022-08-28T23:45:16.804Z,36.08
2022-08-28T23:47:43.645Z,36.10
2022-08-28T23:50:13.908Z,36.16
2022-08-28T23:52:40.504Z,36.72
2022-08-28T23:55:07.330Z,36.58
2022-08-28T23:57:34.543Z,36.49
